createdAt,value
2024-03-14T07:46:56.388Z,33.79
2024-03-14T07:47:08.106Z,33.60
2024-03-14T07:47:19.683Z,33.38
2024-03-14T07:47:30.985Z,33.31
2024-03-14T07:47:42.595Z,33.28
2024-03-14T07:47:54.615Z,33.28
2024-03-14T07:48:04.035Z,33.29
2024-03-14T07:48:15.673Z,33.23
2024-03-14T07:48:27.008Z,33.21
2024-03-14T07:48:38.662Z,33.21
2024-03-14T07:48:49.936Z,33.20
2024-03-14T07:49:01.494Z,33.16
2024-03-14T07:49:12.765Z,33.17
2024-03-14T07:49:24.279Z,33.14
2024-03-14T07:49:35.576Z,33.15
2024-03-14T07:49:47.072Z,33.15
2024-03-14T07:49:58.329Z,33.14
2024-03-14T07:50:09.856Z,33.16
2024-03-14T07:50:21.131Z,33.16
2024-03-14T07:50:32.654Z,33.14
2024-03-14T07:50:43.910Z,33.14
2024-03-14T07:50:55.485Z,33.14
2024-03-14T07:51:06.785Z,33.15
2024-03-14T07:51:18.317Z,33.12
2024-03-14T07:51:29.680Z,33.13
2024-03-14T07:51:41.190Z,33.13
2024-03-14T07:51:52.453Z,33.13
2024-03-14T07:52:03.970Z,33.13
2024-03-14T07:52:15.224Z,33.13
2024-03-14T07:52:26.754Z,33.12
2024-03-14T07:52:38.039Z,33.14
2024-03-14T07:52:49.562Z,33.12
2024-03-14T07:53:00.823Z,33.13
2024-03-14T07:53:12.351Z,33.14
2024-03-14T07:53:23.623Z,33.15
2024-03-14T07:53:35.127Z,33.13
2024-03-14T07:53:46.387Z,33.13
2024-03-14T07:53:57.982Z,33.13
2024-03-14T07:54:09.242Z,33.14
2024-03-14T07:54:20.801Z,33.16
2024-03-14T07:54:32.202Z,33.14
2024-03-14T07:54:43.835Z,33.15
2024-03-14T07:54:55.103Z,33.17
2024-03-14T07:55:07.485Z,33.16
2024-03-14T07:55:16.641Z,33.12
2024-03-14T07:55:28.213Z,33.16
2024-03-14T07:55:39.470Z,33.16
2024-03-14T07:55:50.986Z,33.17
2024-03-14T07:56:02.257Z,33.16
2024-03-14T07:56:13.739Z,33.17
2024-03-14T07:56:25.010Z,33.14
2024-03-14T07:56:36.529Z,33.19
2024-03-14T07:56:48.037Z,33.19
2024-03-14T07:56:59.684Z,33.19
2024-03-14T07:57:10.944Z,33.18
2024-03-14T07:57:22.603Z,33.16
2024-03-14T07:57:34.012Z,33.18
2024-03-14T07:57:45.565Z,33.20
2024-03-14T07:57:56.848Z,33.19
2024-03-14T07:58:08.363Z,33.19
2024-03-14T07:58:19.650Z,33.21
2024-03-14T07:58:31.142Z,33.20
2024-03-14T07:58:42.427Z,33.19
2024-03-14T07:58:53.961Z,33.21
2024-03-14T07:59:05.218Z,33.20
2024-03-14T07:59:16.751Z,33.21
2024-03-14T07:59:29.939Z,33.20
2024-03-14T07:59:39.260Z,33.28
2024-03-14T07:59:50.832Z,33.24
2024-03-14T08:00:02.115Z,33.23
